Time;durP1;ratioP1;P1;durP2;ratioP2;P2;SDS_P1;SDS_P2;PMS_P1;PMS_P2;Temp;Humidity;BMP_temperature;BMP_pressure;BME280_temperature;BME280_humidity;BME280_pressure;Samples;Min_cycle;Max_cycle;Signal;HPM_P1;HPM_P2
2023/03/08 00:02:09;;;;;;;2.67;0.70;;;0.10;99.90;;;;;;5051582;28;20198;-57
2023/03/08 00:04:36;;;;;;;3.13;0.90;;;0.10;99.90;;;;;;5044509;28;20987;-49
2023/03/08 00:07:03;;;;;;;4.50;1.00;;;0.10;99.90;;;;;;5045559;28;20250;-52
2023/03/08 00:09:31;;;;;;;3.60;0.90;;;0.10;99.90;;;;;;5029705;28;20214;-48
2023/03/08 00:11:58;;;;;;;2.63;0.80;;;0.10;99.90;;;;;;5053443;28;20205;-45
2023/03/08 00:14:25;;;;;;;3.80;1.23;;;0.10;99.90;;;;;;5041893;28;20252;-46
2023/03/08 00:16:53;;;;;;;2.73;1.00;;;0.10;99.90;;;;;;5045408;28;20238;-47
2023/03/08 00:19:19;;;;;;;2.27;0.87;;;0.10;99.90;;;;;;5038449;28;20216;-49
2023/03/08 00:21:46;;;;;;;4.83;1.00;;;0.10;99.90;;;;;;5048681;28;20582;-47
2023/03/08 00:24:15;;;;;;;1.73;1.10;;;0.10;99.90;;;;;;5041458;28;20392;-46
2023/03/08 00:26:43;;;;;;;3.20;1.00;;;0.10;99.90;;;;;;5036326;28;20208;-48
2023/03/08 00:29:11;;;;;;;2.23;0.70;;;0.10;99.90;;;;;;5052118;28;20199;-48
2023/03/08 00:31:38;;;;;;;1.63;0.83;;;0.10;99.90;;;;;;5051082;28;20215;-49
2023/03/08 00:34:05;;;;;;;3.83;0.80;;;0.10;99.90;;;;;;5053484;28;20227;-54
2023/03/08 00:36:32;;;;;;;2.30;1.00;;;0.10;99.90;;;;;;5046080;28;20256;-47
2023/03/08 00:38:59;;;;;;;2.83;1.10;;;0.10;99.90;;;;;;5043537;28;20678;-54
2023/03/08 00:41:26;;;;;;;5.57;1.23;;;0.10;99.90;;;;;;5032870;28;20208;-46
2023/03/08 00:43:54;;;;;;;2.17;1.07;;;0.10;99.90;;;;;;5051392;28;20582;-56
2023/03/08 00:46:22;;;;;;;4.13;0.83;;;0.00;99.90;;;;;;5048871;28;20281;-47
2023/03/08 00:48:49;;;;;;;4.00;1.37;;;0.00;99.90;;;;;;5045462;28;20212;-52
2023/03/08 00:51:17;;;;;;;3.77;0.93;;;0.00;99.90;;;;;;5039970;28;20209;-50
2023/03/08 00:53:44;;;;;;;2.53;0.90;;;0.00;99.90;;;;;;5044875;28;20244;-47
2023/03/08 00:56:32;;;;;;;2.83;1.03;;;0.00;99.90;;;;;;5034633;28;20589;-48
2023/03/08 00:59:01;;;;;;;1.70;1.03;;;0.10;99.90;;;;;;5047934;28;20220;-57
2023/03/08 01:01:49;;;;;;;1.23;0.87;;;0.10;99.90;;;;;;5050742;28;20216;-55
2023/03/08 01:04:16;;;;;;;3.10;0.90;;;0.10;99.90;;;;;;5048205;28;20314;-47
2023/03/08 01:06:43;;;;;;;3.10;0.80;;;0.10;99.90;;;;;;5047956;28;20217;-46
2023/03/08 01:09:11;;;;;;;3.73;0.87;;;0.10;99.90;;;;;;5039441;28;20292;-47
2023/03/08 01:11:39;;;;;;;3.17;1.13;;;0.10;99.90;;;;;;5043535;28;20228;-49
2023/03/08 01:14:08;;;;;;;1.43;1.00;;;0.10;99.90;;;;;;5037992;28;20218;-56
2023/03/08 01:16:36;;;;;;;3.40;0.90;;;0.00;99.90;;;;;;5045842;28;20250;-51
2023/03/08 01:19:24;;;;;;;1.37;0.90;;;0.00;99.90;;;;;;5042879;28;20857;-49
2023/03/08 01:21:51;;;;;;;1.50;1.20;;;0.00;99.90;;;;;;5042824;28;20213;-57
2023/03/08 01:24:18;;;;;;;2.83;1.03;;;0.00;99.90;;;;;;5040825;28;20216;-49
2023/03/08 01:26:45;;;;;;;2.57;0.97;;;-0.10;99.90;;;;;;5043747;28;20201;-45
2023/03/08 01:29:13;;;;;;;2.53;1.07;;;-0.10;99.90;;;;;;5035399;28;20973;-48
2023/03/08 01:31:40;;;;;;;5.13;1.30;;;-0.10;99.90;;;;;;5043173;28;20547;-48
2023/03/08 01:34:09;;;;;;;3.17;1.20;;;-0.20;99.90;;;;;;5046919;28;20213;-61
2023/03/08 01:36:35;;;;;;;4.67;1.20;;;-0.20;99.90;;;;;;5046977;28;20193;-46
2023/03/08 01:39:03;;;;;;;4.73;1.20;;;-0.20;99.90;;;;;;5041793;28;20356;-56
2023/03/08 01:41:51;;;;;;;1.67;1.10;;;-0.30;99.90;;;;;;5057501;28;20215;-56
2023/03/08 01:44:21;;;;;;;6.07;1.70;;;-0.30;99.90;;;;;;5037036;28;20219;-49
2023/03/08 01:46:49;;;;;;;1.60;1.40;;;-0.30;99.90;;;;;;5050072;28;20679;-52
2023/03/08 01:49:21;;;;;;;1.63;1.40;;;-0.30;99.90;;;;;;5041338;28;20258;-49
2023/03/08 01:52:12;;;;;;;3.23;1.43;;;-0.40;99.90;;;;;;5040164;28;20216;-49
2023/03/08 01:54:45;;;;;;;2.53;1.60;;;-0.40;99.90;;;;;;5042860;28;20205;-48
2023/03/08 01:57:17;;;;;;;2.43;1.87;;;-0.40;99.90;;;;;;5038679;28;20203;-52
2023/03/08 01:59:50;;;;;;;2.50;1.43;;;-0.40;99.90;;;;;;5039486;28;21056;-49
2023/03/08 02:02:18;;;;;;;1.50;1.30;;;-0.50;99.90;;;;;;5043690;28;20199;-50
2023/03/08 02:04:46;;;;;;;3.60;1.40;;;-0.50;99.90;;;;;;5054719;28;20224;-46
2023/03/08 02:07:14;;;;;;;2.13;1.40;;;-0.50;99.90;;;;;;5038882;28;20290;-47
2023/03/08 02:09:42;;;;;;;2.00;1.27;;;-0.50;99.90;;;;;;5042545;28;20204;-47
2023/03/08 02:12:12;;;;;;;3.90;1.70;;;-0.50;99.90;;;;;;5038284;28;20263;-52
2023/03/08 02:14:41;;;;;;;1.53;1.40;;;-0.50;99.90;;;;;;5043346;28;20246;-46
2023/03/08 02:17:10;;;;;;;1.53;1.33;;;-0.60;99.90;;;;;;5039631;28;20201;-55
2023/03/08 02:19:59;;;;;;;3.90;1.47;;;-0.60;99.90;;;;;;5046162;28;20615;-56
2023/03/08 02:22:27;;;;;;;1.80;1.70;;;-0.60;99.90;;;;;;5051085;28;20824;-47
2023/03/08 02:24:55;;;;;;;2.27;1.30;;;-0.60;99.90;;;;;;5044087;28;20584;-55
2023/03/08 02:27:25;;;;;;;1.50;1.40;;;-0.60;99.90;;;;;;5051036;28;20849;-47
2023/03/08 02:30:14;;;;;;;2.53;1.50;;;-0.70;99.90;;;;;;5035647;28;20226;-46
2023/03/08 02:32:41;;;;;;;1.67;1.40;;;-0.70;99.90;;;;;;5037084;28;20230;-46
2023/03/08 02:35:30;;;;;;;1.60;1.50;;;-0.70;99.90;;;;;;5048465;28;20249;-49
2023/03/08 02:37:57;;;;;;;2.63;1.57;;;-0.80;99.90;;;;;;5044679;28;20265;-55
2023/03/08 02:40:26;;;;;;;2.27;1.80;;;-0.80;99.90;;;;;;5059646;28;20886;-48
2023/03/08 02:42:54;;;;;;;3.77;1.93;;;-0.80;99.90;;;;;;5061217;28;20701;-54
2023/03/08 02:45:22;;;;;;;1.60;1.50;;;-0.70;99.90;;;;;;5060183;28;20429;-51
2023/03/08 02:47:49;;;;;;;2.83;1.60;;;-0.70;99.90;;;;;;5045949;28;20622;-56
2023/03/08 02:50:17;;;;;;;3.00;1.70;;;-0.60;99.90;;;;;;5049926;28;20196;-51
2023/03/08 02:52:44;;;;;;;3.53;2.00;;;-0.60;99.90;;;;;;5042900;28;20702;-49
2023/03/08 02:55:11;;;;;;;3.10;1.80;;;-0.50;99.90;;;;;;5043712;28;20192;-46
2023/03/08 02:57:40;;;;;;;3.37;2.50;;;-0.50;99.90;;;;;;5052432;28;20201;-49
2023/03/08 03:00:09;;;;;;;2.03;1.83;;;-0.40;99.90;;;;;;5040302;28;20908;-55
2023/03/08 03:02:37;;;;;;;4.43;2.63;;;-0.40;99.90;;;;;;5042824;28;20232;-46
2023/03/08 03:05:05;;;;;;;3.97;2.50;;;-0.30;99.90;;;;;;5031607;28;20665;-56
2023/03/08 03:07:35;;;;;;;4.20;2.87;;;-0.30;99.90;;;;;;5058209;28;20196;-48
2023/03/08 03:10:02;;;;;;;3.77;2.40;;;-0.20;99.90;;;;;;5058172;28;20217;-58
2023/03/08 03:12:31;;;;;;;5.60;2.50;;;-0.20;99.90;;;;;;5060091;28;20711;-52
2023/03/08 03:15:01;;;;;;;4.33;2.53;;;-0.10;99.90;;;;;;5060103;28;20212;-55
2023/03/08 03:17:27;;;;;;;3.10;2.80;;;-0.10;99.90;;;;;;5059458;28;20299;-52
2023/03/08 03:19:54;;;;;;;3.00;2.67;;;0.00;99.90;;;;;;5041943;28;20200;-55
2023/03/08 03:22:21;;;;;;;4.77;2.97;;;0.00;99.90;;;;;;5050514;28;20203;-46
2023/03/08 03:24:50;;;;;;;7.43;3.37;;;0.00;99.90;;;;;;5041134;28;20229;-52
2023/03/08 03:27:17;;;;;;;4.73;2.83;;;0.00;99.90;;;;;;5037361;28;20920;-52
2023/03/08 03:29:45;;;;;;;3.53;2.93;;;0.10;99.90;;;;;;5049355;28;20204;-46
2023/03/08 03:32:17;;;;;;;3.23;2.93;;;0.10;99.90;;;;;;5060652;28;20200;-49
2023/03/08 03:34:44;;;;;;;3.77;3.47;;;0.10;99.90;;;;;;5065372;28;20205;-47
2023/03/08 03:37:11;;;;;;;3.90;2.80;;;0.10;99.90;;;;;;5034083;28;20208;-50
2023/03/08 03:39:40;;;;;;;3.87;3.23;;;0.10;99.90;;;;;;5056590;28;20208;-48
2023/03/08 03:42:10;;;;;;;3.53;3.23;;;0.10;99.90;;;;;;5041159;28;20828;-53
2023/03/08 03:44:41;;;;;;;3.70;3.40;;;0.20;99.90;;;;;;5045035;28;20221;-48
2023/03/08 03:47:12;;;;;;;3.77;3.20;;;0.20;99.90;;;;;;5059984;28;20212;-49
2023/03/08 03:49:41;;;;;;;4.07;3.63;;;0.20;99.90;;;;;;5056271;28;20236;-51
2023/03/08 03:52:08;;;;;;;4.07;3.00;;;0.20;99.90;;;;;;5036413;28;20717;-54
2023/03/08 03:54:44;;;;;;;4.43;3.53;;;0.20;99.90;;;;;;5047767;28;20208;-49
2023/03/08 03:57:11;;;;;;;5.97;3.80;;;0.20;99.90;;;;;;5042353;28;20423;-51
2023/03/08 03:59:41;;;;;;;6.20;3.40;;;0.30;99.90;;;;;;5043870;28;20213;-47
2023/03/08 04:02:09;;;;;;;6.00;3.80;;;0.30;99.90;;;;;;5039597;28;20211;-46
2023/03/08 04:04:43;;;;;;;5.10;3.77;;;0.30;99.90;;;;;;5044134;28;20221;-50
2023/03/08 04:07:12;;;;;;;4.70;3.23;;;0.30;99.90;;;;;;5032708;28;20213;-46
2023/03/08 04:09:46;;;;;;;5.20;3.57;;;0.30;99.90;;;;;;5047702;28;20205;-48
2023/03/08 04:12:16;;;;;;;7.20;3.60;;;0.30;99.90;;;;;;5040932;28;20542;-51
2023/03/08 04:14:44;;;;;;;5.10;3.97;;;0.30;99.90;;;;;;5045596;28;20206;-51
2023/03/08 04:17:13;;;;;;;4.37;3.77;;;0.30;99.90;;;;;;5051447;28;20200;-49
2023/03/08 04:19:48;;;;;;;7.93;3.43;;;0.30;99.90;;;;;;5045243;28;20209;-48
2023/03/08 04:22:16;;;;;;;5.60;3.80;;;0.30;99.90;;;;;;5031432;28;20196;-49
2023/03/08 04:24:51;;;;;;;5.83;3.73;;;0.30;99.90;;;;;;5049364;28;20235;-55
2023/03/08 04:27:28;;;;;;;3.37;3.17;;;0.40;99.90;;;;;;5042355;28;20208;-50
2023/03/08 04:29:56;;;;;;;4.47;3.80;;;0.30;99.90;;;;;;5042979;28;20298;-55
2023/03/08 04:32:23;;;;;;;6.63;3.73;;;0.40;99.90;;;;;;5041689;28;20892;-45
2023/03/08 04:34:57;;;;;;;4.73;4.30;;;0.40;99.90;;;;;;5038959;28;20247;-47
2023/03/08 04:37:26;;;;;;;4.40;4.00;;;0.40;99.90;;;;;;5032860;28;20216;-54
2023/03/08 04:40:04;;;;;;;9.07;5.03;;;0.40;99.90;;;;;;5048079;28;20297;-54
2023/03/08 04:42:34;;;;;;;4.87;3.80;;;0.40;99.90;;;;;;5040733;28;20278;-54
2023/03/08 04:45:01;;;;;;;5.70;4.20;;;0.40;99.90;;;;;;5047239;28;20232;-53
2023/03/08 04:47:28;;;;;;;8.57;4.50;;;0.40;99.90;;;;;;5050032;28;20210;-51
2023/03/08 04:49:54;;;;;;;4.87;3.93;;;0.40;99.90;;;;;;5043025;28;20224;-51
2023/03/08 04:52:24;;;;;;;8.47;5.10;;;0.40;99.90;;;;;;5032869;28;20248;-51
2023/03/08 04:54:54;;;;;;;4.67;4.10;;;0.40;99.90;;;;;;5049855;28;20259;-50
2023/03/08 04:57:23;;;;;;;4.40;4.00;;;0.40;99.90;;;;;;5060643;28;20201;-50
2023/03/08 04:59:56;;;;;;;4.70;3.53;;;0.40;99.90;;;;;;5063200;28;20566;-53
2023/03/08 05:02:23;;;;;;;4.13;3.73;;;0.40;99.90;;;;;;5045867;28;20226;-52
2023/03/08 05:04:53;;;;;;;9.17;3.57;;;0.40;99.90;;;;;;5062032;28;20213;-51
2023/03/08 05:07:20;;;;;;;3.03;2.57;;;0.40;99.90;;;;;;5035395;28;20200;-46
2023/03/08 05:09:50;;;;;;;6.07;3.47;;;0.40;99.90;;;;;;5050138;28;20240;-54
2023/03/08 05:12:17;;;;;;;4.67;2.70;;;0.40;99.90;;;;;;5043604;28;20229;-47
2023/03/08 05:14:55;;;;;;;3.90;3.00;;;0.40;99.90;;;;;;5046325;28;20200;-51
2023/03/08 05:17:23;;;;;;;4.10;2.60;;;0.40;99.90;;;;;;5047514;28;20764;-50
2023/03/08 05:19:50;;;;;;;5.47;3.30;;;0.40;99.90;;;;;;5050093;28;20206;-52
2023/03/08 05:22:22;;;;;;;6.90;3.50;;;0.40;99.90;;;;;;5034213;28;20321;-50
2023/03/08 05:24:52;;;;;;;4.30;2.80;;;0.40;99.90;;;;;;5052334;28;20258;-51
2023/03/08 05:27:20;;;;;;;8.77;3.33;;;0.40;99.90;;;;;;5041741;28;20228;-51
2023/03/08 05:29:48;;;;;;;3.33;3.00;;;0.50;99.90;;;;;;5041847;28;20259;-52
2023/03/08 05:32:15;;;;;;;3.57;2.70;;;0.40;99.90;;;;;;5039333;28;20203;-48
2023/03/08 05:34:43;;;;;;;5.13;3.53;;;0.40;99.90;;;;;;5042360;28;20202;-49
2023/03/08 05:37:14;;;;;;;4.10;3.80;;;0.40;99.90;;;;;;5037523;28;20201;-51
2023/03/08 05:39:43;;;;;;;6.27;4.87;;;0.40;99.90;;;;;;5038868;28;20233;-53
2023/03/08 05:42:19;;;;;;;5.87;4.83;;;0.40;99.90;;;;;;5040460;28;20688;-49
2023/03/08 05:44:46;;;;;;;5.60;5.10;;;0.40;99.90;;;;;;5042109;28;20208;-54
2023/03/08 05:47:16;;;;;;;5.93;5.43;;;0.40;99.90;;;;;;5051645;28;20583;-48
2023/03/08 05:49:44;;;;;;;10.83;6.53;;;0.40;99.90;;;;;;5056542;28;20881;-52
2023/03/08 05:52:11;;;;;;;7.20;6.50;;;0.50;99.90;;;;;;5046896;28;20263;-53
2023/03/08 05:54:59;;;;;;;9.40;6.40;;;0.50;99.90;;;;;;5034370;28;20216;-56
2023/03/08 05:57:29;;;;;;;10.63;6.40;;;0.50;99.90;;;;;;5045448;28;20603;-50
2023/03/08 05:59:58;;;;;;;7.60;6.80;;;0.50;99.90;;;;;;5042921;28;20211;-55
2023/03/08 06:02:25;;;;;;;8.40;7.17;;;0.50;99.90;;;;;;5039803;28;20298;-48
2023/03/08 06:04:55;;;;;;;9.87;6.73;;;0.50;99.90;;;;;;5060930;28;20648;-53
2023/03/08 06:07:24;;;;;;;7.83;7.03;;;0.50;99.90;;;;;;5043623;28;20201;-51
2023/03/08 06:10:01;;;;;;;10.80;8.23;;;0.50;99.90;;;;;;5037277;28;20220;-51
2023/03/08 06:12:29;;;;;;;9.03;7.57;;;0.50;99.90;;;;;;5036798;28;20225;-50
2023/03/08 06:14:59;;;;;;;11.23;8.53;;;0.50;99.90;;;;;;5057095;28;20209;-52
2023/03/08 06:17:48;;;;;;;13.83;7.37;;;0.60;99.90;;;;;;5051418;28;20209;-55
2023/03/08 06:20:18;;;;;;;9.73;7.37;;;0.60;99.90;;;;;;5044266;28;20223;-47
2023/03/08 06:22:49;;;;;;;9.63;7.03;;;0.60;99.90;;;;;;5040056;28;20239;-54
2023/03/08 06:25:17;;;;;;;10.20;7.43;;;0.60;99.90;;;;;;5031144;28;20283;-49
2023/03/08 06:27:45;;;;;;;8.77;7.40;;;0.60;99.90;;;;;;5048956;28;20192;-51
2023/03/08 06:30:21;;;;;;;8.30;6.87;;;0.60;99.90;;;;;;5052215;28;20278;-53
2023/03/08 06:33:09;;;;;;;9.17;6.50;;;0.60;99.90;;;;;;5050121;28;20233;-50
2023/03/08 06:35:36;;;;;;;7.10;6.17;;;0.60;99.90;;;;;;5039315;28;20212;-50
2023/03/08 06:38:04;;;;;;;9.03;5.97;;;0.60;99.90;;;;;;5052047;28;20201;-52
2023/03/08 06:40:33;;;;;;;8.80;6.40;;;0.60;99.90;;;;;;5025305;28;20377;-54
2023/03/08 06:43:02;;;;;;;9.40;6.00;;;0.60;99.90;;;;;;5051779;28;20223;-53
2023/03/08 06:45:28;;;;;;;8.80;5.97;;;0.60;99.90;;;;;;5048047;28;20229;-50
2023/03/08 06:47:55;;;;;;;6.27;5.67;;;0.60;99.90;;;;;;5052983;28;20574;-50
2023/03/08 06:50:23;;;;;;;6.03;5.47;;;0.70;99.90;;;;;;5041889;28;20205;-51
2023/03/08 06:52:50;;;;;;;8.10;6.53;;;0.60;99.90;;;;;;5048720;28;20238;-51
2023/03/08 06:55:26;;;;;;;10.20;7.83;;;0.70;99.90;;;;;;5038157;28;20214;-50
2023/03/08 06:58:17;;;;;;;10.23;8.03;;;0.70;99.90;;;;;;5038954;28;20238;-49
2023/03/08 07:00:44;;;;;;;12.47;8.93;;;0.70;99.90;;;;;;5051395;28;20618;-53
2023/03/08 07:03:12;;;;;;;10.20;8.67;;;0.70;99.90;;;;;;5044549;28;20221;-49
2023/03/08 07:05:39;;;;;;;10.43;7.90;;;0.80;99.90;;;;;;5049682;28;20276;-56
2023/03/08 07:08:06;;;;;;;7.57;6.77;;;0.80;99.90;;;;;;5045297;28;20198;-49
2023/03/08 07:10:33;;;;;;;8.07;6.73;;;0.80;99.90;;;;;;5042384;28;20205;-55
2023/03/08 07:13:00;;;;;;;9.87;6.40;;;0.80;99.90;;;;;;5034069;28;20283;-53
2023/03/08 07:15:28;;;;;;;6.13;5.53;;;0.80;99.90;;;;;;5047618;28;20186;-54
2023/03/08 07:17:56;;;;;;;6.23;5.60;;;0.80;99.90;;;;;;5054686;28;20668;-53
2023/03/08 07:20:25;;;;;;;8.83;5.63;;;0.80;99.90;;;;;;5043472;28;20221;-50
2023/03/08 07:22:52;;;;;;;6.03;5.07;;;0.80;99.90;;;;;;5046415;28;20227;-53
2023/03/08 07:25:20;;;;;;;5.20;4.77;;;0.80;99.90;;;;;;5043969;28;20699;-48
2023/03/08 07:27:47;;;;;;;9.00;4.90;;;0.70;99.90;;;;;;5046506;28;20202;-50
2023/03/08 07:30:16;;;;;;;5.03;4.33;;;0.70;99.90;;;;;;5037217;28;20596;-50
2023/03/08 07:32:45;;;;;;;6.63;4.43;;;0.70;99.90;;;;;;5050374;28;20283;-51
2023/03/08 07:35:15;;;;;;;6.70;4.97;;;0.70;99.90;;;;;;5062643;28;20209;-48
2023/03/08 07:37:44;;;;;;;5.90;4.40;;;0.70;99.90;;;;;;5046285;28;20198;-53
2023/03/08 07:40:13;;;;;;;4.90;4.50;;;0.70;99.90;;;;;;5056038;28;20733;-49
2023/03/08 07:42:40;;;;;;;4.33;3.93;;;0.80;99.90;;;;;;5058342;28;20234;-50
2023/03/08 07:45:23;;;;;;;4.20;3.67;;;0.80;99.90;;;;;;5039826;28;20348;-56
2023/03/08 07:47:54;;;;;;;4.00;3.60;;;0.90;99.90;;;;;;5053307;28;20209;-55
2023/03/08 07:50:23;;;;;;;5.30;3.90;;;0.90;99.90;;;;;;5061649;28;20205;-56
2023/03/08 07:53:12;;;;;;;6.10;3.57;;;0.90;99.90;;;;;;5062793;28;20229;-50
2023/03/08 07:55:40;;;;;;;5.33;3.67;;;0.90;99.90;;;;;;5064739;28;20279;-52
2023/03/08 07:58:06;;;;;;;4.00;3.10;;;1.00;99.90;;;;;;5061632;28;20213;-53
2023/03/08 08:00:36;;;;;;;3.50;3.20;;;1.00;99.90;;;;;;5038517;28;21063;-53
2023/03/08 08:03:04;;;;;;;4.27;3.87;;;1.10;99.90;;;;;;5054766;28;20700;-48
2023/03/08 08:05:53;;;;;;;4.70;3.60;;;1.10;99.90;;;;;;5048171;28;20249;-56
2023/03/08 08:08:23;;;;;;;4.23;3.83;;;1.10;99.90;;;;;;5042377;28;20194;-54
2023/03/08 08:10:51;;;;;;;4.80;3.90;;;1.20;99.90;;;;;;5055329;28;20293;-51
2023/03/08 08:13:18;;;;;;;4.83;4.33;;;1.20;99.90;;;;;;5059804;28;20222;-52
2023/03/08 08:15:46;;;;;;;7.47;5.00;;;1.30;99.90;;;;;;5039896;28;20694;-53
2023/03/08 08:18:14;;;;;;;5.13;4.53;;;1.30;99.90;;;;;;5053638;28;20194;-48
2023/03/08 08:20:41;;;;;;;16.60;8.23;;;1.40;99.90;;;;;;5041749;28;20289;-53
2023/03/08 08:23:08;;;;;;;20.13;9.40;;;1.40;99.90;;;;;;5043857;28;20309;-51
2023/03/08 08:25:38;;;;;;;9.57;6.93;;;1.40;99.90;;;;;;5044262;28;20284;-53
2023/03/08 08:28:24;;;;;;;11.23;8.07;;;1.40;99.90;;;;;;5042427;28;20213;-53
2023/03/08 08:30:59;;;;;;;14.13;8.27;;;1.40;99.90;;;;;;5041347;28;20214;-52
2023/03/08 08:33:29;;;;;;;12.60;8.20;;;1.40;99.90;;;;;;5050205;28;20221;-50
2023/03/08 08:35:58;;;;;;;12.17;8.20;;;1.50;99.90;;;;;;5046983;28;20241;-52
2023/03/08 08:38:26;;;;;;;15.00;8.83;;;1.50;99.90;;;;;;5041750;28;20277;-47
2023/03/08 08:40:52;;;;;;;15.97;8.80;;;1.60;99.90;;;;;;5045676;28;20669;-45
2023/03/08 08:43:19;;;;;;;17.73;9.17;;;1.50;99.90;;;;;;5041451;28;20214;-53
2023/03/08 08:45:48;;;;;;;13.63;8.10;;;1.50;99.90;;;;;;5037088;28;20221;-47
2023/03/08 08:48:15;;;;;;;11.97;8.80;;;1.60;99.90;;;;;;5055695;28;20292;-56
2023/03/08 08:50:43;;;;;;;18.03;10.10;;;1.50;99.90;;;;;;5044607;28;20209;-48
2023/03/08 08:53:10;;;;;;;18.27;10.40;;;1.50;99.90;;;;;;5042608;28;20233;-56
2023/03/08 08:55:38;;;;;;;15.27;9.90;;;1.60;99.90;;;;;;5043741;28;20209;-46
2023/03/08 08:58:05;;;;;;;12.97;9.50;;;1.70;99.90;;;;;;5044389;28;20249;-57
2023/03/08 09:00:33;;;;;;;14.93;8.90;;;1.70;99.90;;;;;;5042962;28;20909;-51
2023/03/08 09:03:00;;;;;;;16.30;9.50;;;1.70;99.90;;;;;;5038779;28;20217;-55
2023/03/08 09:05:28;;;;;;;15.17;10.10;;;1.60;99.90;;;;;;5042552;28;20201;-53
2023/03/08 09:08:00;;;;;;;15.80;9.83;;;1.70;99.90;;;;;;5047741;28;20627;-46
2023/03/08 09:10:28;;;;;;;18.33;10.33;;;1.70;99.90;;;;;;5041740;28;20904;-46
2023/03/08 09:12:55;;;;;;;15.40;9.63;;;1.80;99.90;;;;;;5043905;28;20588;-47
2023/03/08 09:15:25;;;;;;;14.47;8.63;;;1.80;99.90;;;;;;5046802;28;20194;-52
2023/03/08 09:17:51;;;;;;;13.90;8.13;;;1.80;99.90;;;;;;5040807;28;20261;-48
2023/03/08 09:20:19;;;;;;;14.80;9.40;;;1.80;99.90;;;;;;5047470;28;20230;-55
2023/03/08 09:22:46;;;;;;;16.80;10.20;;;1.80;99.90;;;;;;5045282;28;20381;-52
2023/03/08 09:25:14;;;;;;;17.87;10.50;;;1.80;99.90;;;;;;5041414;28;20210;-58
2023/03/08 09:28:04;;;;;;;18.13;10.47;;;1.90;99.90;;;;;;5044340;28;20234;-56
2023/03/08 09:30:31;;;;;;;14.80;9.33;;;1.90;99.90;;;;;;5052304;28;20762;-47
2023/03/08 09:32:58;;;;;;;15.10;9.63;;;1.90;99.90;;;;;;5046649;28;20305;-47
2023/03/08 09:35:25;;;;;;;16.40;9.23;;;1.90;99.90;;;;;;5050466;28;20763;-49
2023/03/08 09:38:13;;;;;;;18.60;9.93;;;2.00;99.90;;;;;;5039803;28;20295;-58
2023/03/08 09:41:24;;;;;;;16.50;9.33;;;2.00;99.90;;;;;;5059495;28;20216;-58
2023/03/08 09:44:01;;;;;;;15.27;9.73;;;2.00;99.90;;;;;;5063257;28;20229;-53
2023/03/08 09:46:35;;;;;;;19.67;10.37;;;2.00;99.90;;;;;;5046781;28;20242;-46
2023/03/08 09:49:04;;;;;;;18.33;9.83;;;2.10;99.90;;;;;;5039422;28;20206;-57
2023/03/08 09:51:38;;;;;;;23.30;9.83;;;2.10;99.90;;;;;;5042454;28;20202;-48
2023/03/08 09:54:11;;;;;;;14.37;9.77;;;2.20;99.90;;;;;;5042846;28;20273;-56
2023/03/08 09:57:07;;;;;;;13.60;8.23;;;2.20;99.90;;;;;;5044616;28;20214;-55
2023/03/08 09:59:59;;;;;;;17.10;8.70;;;2.10;99.90;;;;;;5044368;28;20731;-47
2023/03/08 10:02:35;;;;;;;19.57;9.57;;;2.00;99.90;;;;;;5027074;28;20535;-49
2023/03/08 10:05:11;;;;;;;13.63;9.07;;;2.00;99.90;;;;;;5048712;28;20198;-57
2023/03/08 10:07:49;;;;;;;16.00;9.73;;;2.00;99.90;;;;;;5042187;28;20230;-46
2023/03/08 10:10:29;;;;;;;16.53;9.37;;;2.00;99.90;;;;;;5040228;28;20214;-56
2023/03/08 10:13:11;;;;;;;12.70;8.13;;;2.10;99.90;;;;;;5042241;28;20261;-46
2023/03/08 10:15:41;;;;;;;18.57;10.40;;;2.10;99.90;;;;;;5047521;28;20190;-47
2023/03/08 10:18:15;;;;;;;22.97;10.23;;;2.10;99.90;;;;;;5040979;28;20186;-59
2023/03/08 10:20:43;;;;;;;19.53;9.80;;;2.10;99.90;;;;;;5051862;28;20687;-46
2023/03/08 10:23:15;;;;;;;20.67;9.80;;;2.20;99.90;;;;;;5042611;28;20223;-52
2023/03/08 10:25:43;;;;;;;19.10;10.20;;;2.20;99.90;;;;;;5045834;28;20277;-52
2023/03/08 10:28:15;;;;;;;16.63;8.43;;;2.20;99.90;;;;;;5047366;28;20274;-55
2023/03/08 10:30:46;;;;;;;14.97;8.63;;;2.30;99.90;;;;;;5046457;28;20282;-49
2023/03/08 10:33:16;;;;;;;14.17;7.53;;;2.30;99.90;;;;;;5045798;28;20252;-58
2023/03/08 10:35:55;;;;;;;11.43;7.70;;;2.20;99.90;;;;;;5037537;28;20652;-46
2023/03/08 10:38:23;;;;;;;13.03;7.67;;;2.20;99.90;;;;;;5040074;28;20218;-51
2023/03/08 10:40:59;;;;;;;14.30;8.37;;;2.30;99.90;;;;;;5047678;28;20612;-51
2023/03/08 10:43:30;;;;;;;12.90;7.50;;;2.40;99.90;;;;;;5039483;28;20211;-51
2023/03/08 10:45:59;;;;;;;9.90;6.60;;;2.50;99.90;;;;;;5042711;28;20260;-46
2023/03/08 10:48:26;;;;;;;15.90;7.47;;;2.60;99.90;;;;;;5039749;28;21005;-50
2023/03/08 10:50:59;;;;;;;15.83;7.60;;;2.60;99.90;;;;;;5037191;28;20211;-49
2023/03/08 10:53:28;;;;;;;13.53;6.93;;;2.60;99.90;;;;;;5043158;28;20249;-50
2023/03/08 10:55:55;;;;;;;11.77;6.53;;;2.70;99.90;;;;;;5050435;28;20265;-49
2023/03/08 10:58:30;;;;;;;9.60;6.10;;;2.80;99.90;;;;;;5040643;28;20494;-46
2023/03/08 11:01:00;;;;;;;13.47;7.00;;;2.90;99.90;;;;;;5048744;28;20202;-50
2023/03/08 11:03:27;;;;;;;10.07;5.33;;;3.10;99.90;;;;;;5040930;28;20294;-46
2023/03/08 11:05:57;;;;;;;14.17;7.70;;;3.20;99.90;;;;;;5035294;28;20215;-46
2023/03/08 11:08:27;;;;;;;8.63;6.10;;;3.20;99.90;;;;;;5046343;28;20974;-46
2023/03/08 11:11:09;;;;;;;8.73;6.17;;;3.30;99.90;;;;;;5047889;28;20203;-47
2023/03/08 11:13:40;;;;;;;8.20;5.40;;;3.30;99.90;;;;;;5054551;28;20210;-47
2023/03/08 11:16:20;;;;;;;7.83;5.20;;;3.30;99.90;;;;;;5058915;28;20209;-58
2023/03/08 11:18:53;;;;;;;11.30;5.87;;;3.20;99.90;;;;;;5043559;28;20195;-46
2023/03/08 11:21:26;;;;;;;10.07;5.03;;;3.20;99.90;;;;;;5030278;28;21000;-46
2023/03/08 11:24:04;;;;;;;8.17;5.53;;;3.10;99.90;;;;;;5053471;28;20280;-46
2023/03/08 11:26:38;;;;;;;11.83;5.60;;;3.00;99.90;;;;;;5053168;28;20205;-48
2023/03/08 11:29:16;;;;;;;9.67;6.60;;;3.10;99.90;;;;;;5046292;28;20202;-56
2023/03/08 11:31:53;;;;;;;11.60;6.97;;;3.10;99.90;;;;;;5046024;28;20281;-46
2023/03/08 11:34:59;;;;;;;10.83;6.97;;;3.20;99.90;;;;;;5044593;28;20219;-49
2023/03/08 11:37:36;;;;;;;9.93;6.70;;;3.30;99.90;;;;;;5040699;28;20893;-46
2023/03/08 11:40:19;;;;;;;9.93;6.00;;;3.40;99.90;;;;;;5044706;28;20207;-55
2023/03/08 11:42:59;;;;;;;11.10;6.07;;;3.50;99.90;;;;;;5042854;28;20231;-51
2023/03/08 11:45:33;;;;;;;7.07;4.93;;;3.60;99.90;;;;;;5052814;28;20416;-51
2023/03/08 11:48:18;;;;;;;11.10;4.53;;;3.50;99.90;;;;;;5055001;28;20238;-55
2023/03/08 11:50:52;;;;;;;6.53;4.60;;;3.40;99.90;;;;;;5034502;28;20210;-46
2023/03/08 11:53:27;;;;;;;7.93;4.80;;;3.40;99.90;;;;;;5045587;28;20221;-57
2023/03/08 11:56:08;;;;;;;8.37;4.50;;;3.40;99.90;;;;;;5057791;28;20223;-48
2023/03/08 11:58:40;;;;;;;12.70;4.90;;;3.40;99.90;;;;;;5044136;28;20943;-46
2023/03/08 12:01:14;;;;;;;7.27;5.07;;;3.50;99.90;;;;;;5051791;28;20552;-58
2023/03/08 12:03:45;;;;;;;4.80;4.07;;;3.50;99.90;;;;;;5045488;28;20233;-47
2023/03/08 12:06:17;;;;;;;6.80;4.10;;;3.60;99.90;;;;;;5035794;28;20200;-58
2023/03/08 12:08:48;;;;;;;7.03;4.60;;;3.60;99.90;;;;;;5055229;28;20230;-45
2023/03/08 12:11:20;;;;;;;8.17;4.40;;;3.70;99.90;;;;;;5045360;28;20210;-56
2023/03/08 12:13:51;;;;;;;6.47;4.30;;;3.80;99.90;;;;;;5044813;28;20310;-51
2023/03/08 12:16:25;;;;;;;6.87;4.60;;;3.90;99.90;;;;;;5044089;28;20245;-57
2023/03/08 12:18:55;;;;;;;6.83;4.57;;;3.90;99.90;;;;;;5054716;28;20209;-49
2023/03/08 12:21:33;;;;;;;7.40;4.30;;;4.00;99.90;;;;;;5042346;28;20191;-48
2023/03/08 12:24:20;;;;;;;6.30;4.13;;;4.10;99.90;;;;;;5041731;28;20565;-56
2023/03/08 12:26:52;;;;;;;7.33;4.50;;;4.00;99.90;;;;;;5050974;28;20207;-48
2023/03/08 12:29:23;;;;;;;6.60;3.53;;;4.10;99.90;;;;;;5046299;28;20203;-56
2023/03/08 12:31:52;;;;;;;9.60;5.40;;;4.00;99.90;;;;;;5058950;28;20704;-46
2023/03/08 12:34:28;;;;;;;6.73;4.27;;;4.00;99.90;;;;;;5039339;28;20953;-56
2023/03/08 12:36:55;;;;;;;7.30;4.23;;;4.00;99.90;;;;;;5045814;28;20290;-46
2023/03/08 12:39:29;;;;;;;6.77;4.40;;;4.10;99.90;;;;;;5037469;28;20280;-47
2023/03/08 12:41:58;;;;;;;7.77;4.47;;;4.20;99.90;;;;;;5053912;28;20259;-48
2023/03/08 12:44:27;;;;;;;8.53;4.33;;;4.30;99.90;;;;;;5040886;28;20218;-47
2023/03/08 12:46:59;;;;;;;5.17;4.07;;;4.30;99.90;;;;;;5053277;28;20211;-47
2023/03/08 12:49:30;;;;;;;7.93;4.50;;;4.30;99.90;;;;;;5044795;28;20211;-46
2023/03/08 12:52:00;;;;;;;7.23;3.70;;;4.30;99.90;;;;;;5045729;28;20223;-46
2023/03/08 12:54:31;;;;;;;6.97;4.40;;;4.30;99.90;;;;;;5033890;28;20821;-45
2023/03/08 12:56:59;;;;;;;7.43;4.07;;;4.30;99.90;;;;;;5049309;28;20265;-47
2023/03/08 12:59:38;;;;;;;6.50;3.80;;;4.20;99.90;;;;;;5041525;28;20183;-45
2023/03/08 13:02:30;;;;;;;5.33;3.53;;;4.20;99.90;;;;;;5047554;28;20586;-56
2023/03/08 13:05:20;;;;;;;5.40;3.40;;;4.20;99.90;;;;;;5051060;28;20539;-46
2023/03/08 13:08:04;;;;;;;5.70;3.13;;;4.20;99.90;;;;;;5047302;28;20223;-49
2023/03/08 13:10:34;;;;;;;4.33;3.70;;;4.20;99.90;;;;;;5033277;28;20199;-46
2023/03/08 13:13:17;;;;;;;5.17;3.50;;;4.30;99.90;;;;;;5053668;28;20238;-55
2023/03/08 13:15:43;;;;;;;6.43;4.10;;;4.30;99.90;;;;;;5044735;28;20278;-47